sensor_id;sensor_type;location;lat;lon;timestamp;pressure;altitude;pressure_sealevel;temperature;humidity
54918;BME280;40818;50.562;7.454;2023-03-22T00:07:04;97353.44;;;5.72;100.00
54918;BME280;40818;50.562;7.454;2023-03-22T00:17:07;97353.50;;;5.54;100.00
54918;BME280;40818;50.562;7.454;2023-03-22T00:27:14;97339.75;;;5.54;100.00
54918;BME280;40818;50.562;7.454;2023-03-22T00:37:17;97333.47;;;5.59;100.00
54918;BME280;40818;50.562;7.454;2023-03-22T00:47:23;97325.19;;;5.70;100.00
54918;BME280;40818;50.562;7.454;2023-03-22T00:57:27;97314.88;;;5.70;100.00
54918;BME280;40818;50.562;7.454;2023-03-22T01:07:33;97309.91;;;5.67;100.00
54918;BME280;40818;50.562;7.454;2023-03-22T01:17:37;97292.47;;;5.72;100.00
54918;BME280;40818;50.562;7.454;2023-03-22T01:27:44;97275.00;;;5.77;100.00
54918;BME280;40818;50.562;7.454;2023-03-22T01:37:48;97279.72;;;5.69;100.00
54918;BME280;40818;50.562;7.454;2023-03-22T01:47:59;97260.72;;;5.72;100.00
54918;BME280;40818;50.562;7.454;2023-03-22T01:58:08;97262.31;;;5.74;100.00
54918;BME280;40818;50.562;7.454;2023-03-22T02:08:23;97247.09;;;5.70;100.00
54918;BME280;40818;50.562;7.454;2023-03-22T02:18:37;97251.75;;;5.63;100.00
54918;BME280;40818;50.562;7.454;2023-03-22T02:28:49;97247.50;;;5.62;100.00
54918;BME280;40818;50.562;7.454;2023-03-22T02:39:13;97230.53;;;5.42;100.00
54918;BME280;40818;50.562;7.454;2023-03-22T02:49:21;97218.06;;;5.34;100.00
54918;BME280;40818;50.562;7.454;2023-03-22T02:59:31;97214.66;;;5.34;100.00
54918;BME280;40818;50.562;7.454;2023-03-22T03:09:40;97202.34;;;5.23;100.00
54918;BME280;40818;50.562;7.454;2023-03-22T03:19:58;97199.03;;;5.21;100.00
54918;BME280;40818;50.562;7.454;2023-03-22T03:30:10;97191.16;;;5.24;100.00
54918;BME280;40818;50.562;7.454;2023-03-22T03:40:22;97188.94;;;5.50;100.00
54918;BME280;40818;50.562;7.454;2023-03-22T03:50:27;97179.31;;;5.53;100.00
54918;BME280;40818;50.562;7.454;2023-03-22T04:00:33;97182.69;;;5.54;100.00
54918;BME280;40818;50.562;7.454;2023-03-22T04:10:57;97191.50;;;5.50;100.00
54918;BME280;40818;50.562;7.454;2023-03-22T04:21:03;97190.75;;;5.63;100.00
54918;BME280;40818;50.562;7.454;2023-03-22T04:31:17;97189.59;;;5.69;100.00
54918;BME280;40818;50.562;7.454;2023-03-22T04:41:31;97185.69;;;5.62;100.00
54918;BME280;40818;50.562;7.454;2023-03-22T04:51:34;97180.88;;;5.72;100.00
54918;BME280;40818;50.562;7.454;2023-03-22T05:01:51;97181.19;;;5.81;100.00
54918;BME280;40818;50.562;7.454;2023-03-22T05:11:59;97159.53;;;6.02;100.00
54918;BME280;40818;50.562;7.454;2023-03-22T05:22:35;97155.09;;;6.20;100.00
54918;BME280;40818;50.562;7.454;2023-03-22T05:32:41;97165.94;;;6.25;100.00
54918;BME280;40818;50.562;7.454;2023-03-22T05:42:48;97154.38;;;6.32;100.00
54918;BME280;40818;50.562;7.454;2023-03-22T05:52:56;97142.81;;;6.39;100.00
54918;BME280;40818;50.562;7.454;2023-03-22T06:03:10;97146.78;;;6.45;100.00
54918;BME280;40818;50.562;7.454;2023-03-22T06:13:18;97154.28;;;6.64;100.00
54918;BME280;40818;50.562;7.454;2023-03-22T06:23:25;97162.00;;;6.78;100.00
54918;BME280;40818;50.562;7.454;2023-03-22T06:33:29;97162.97;;;6.92;100.00
54918;BME280;40818;50.562;7.454;2023-03-22T06:43:42;97169.94;;;7.04;100.00
54918;BME280;40818;50.562;7.454;2023-03-22T06:54:00;97171.53;;;7.21;100.00
54918;BME280;40818;50.562;7.454;2023-03-22T07:04:06;97182.50;;;7.39;100.00
54918;BME280;40818;50.562;7.454;2023-03-22T07:14:11;97169.00;;;7.48;100.00
54918;BME280;40818;50.562;7.454;2023-03-22T07:24:43;97162.59;;;7.96;100.00
54918;BME280;40818;50.562;7.454;2023-03-22T07:34:48;97164.31;;;8.50;100.00
54918;BME280;40818;50.562;7.454;2023-03-22T07:44:55;97155.34;;;8.94;100.00
54918;BME280;40818;50.562;7.454;2023-03-22T07:55:19;97144.13;;;9.19;100.00
54918;BME280;40818;50.562;7.454;2023-03-22T08:05:25;97142.50;;;10.04;100.00
54918;BME280;40818;50.562;7.454;2023-03-22T08:15:34;97134.59;;;10.76;100.00
54918;BME280;40818;50.562;7.454;2023-03-22T08:25:41;97119.38;;;10.95;100.00
54918;BME280;40818;50.562;7.454;2023-03-22T08:35:46;97126.31;;;10.24;100.00
54918;BME280;40818;50.562;7.454;2023-03-22T08:45:53;97115.91;;;10.13;100.00
54918;BME280;40818;50.562;7.454;2023-03-22T08:55:58;97117.47;;;10.27;100.00
54918;BME280;40818;50.562;7.454;2023-03-22T09:06:17;97122.84;;;10.37;100.00
54918;BME280;40818;50.562;7.454;2023-03-22T09:16:21;97120.91;;;10.86;99.19
54918;BME280;40818;50.562;7.454;2023-03-22T09:26:27;97111.22;;;10.99;97.57
54918;BME280;40818;50.562;7.454;2023-03-22T09:36:33;97104.16;;;11.79;91.20
54918;BME280;40818;50.562;7.454;2023-03-22T09:46:40;97117.56;;;12.07;88.24
54918;BME280;40818;50.562;7.454;2023-03-22T09:56:48;97122.63;;;12.51;85.90
54918;BME280;40818;50.562;7.454;2023-03-22T10:07:03;97120.94;;;12.61;81.06
54918;BME280;40818;50.562;7.454;2023-03-22T10:17:11;97094.03;;;13.12;81.90
54918;BME280;40818;50.562;7.454;2023-03-22T10:27:21;97092.22;;;13.03;77.84
54918;BME280;40818;50.562;7.454;2023-03-22T10:37:30;97075.88;;;13.01;78.92
54918;BME280;40818;50.562;7.454;2023-03-22T10:47:40;97087.31;;;12.79;77.35
54918;BME280;40818;50.562;7.454;2023-03-22T10:57:56;97093.19;;;13.12;75.05
54918;BME280;40818;50.562;7.454;2023-03-22T11:08:04;97114.16;;;13.10;75.48
54918;BME280;40818;50.562;7.454;2023-03-22T11:18:13;97111.88;;;12.86;74.67
54918;BME280;40818;50.562;7.454;2023-03-22T11:28:22;97099.81;;;12.85;74.80
54918;BME280;40818;50.562;7.454;2023-03-22T11:38:35;97107.00;;;13.34;70.94
54918;BME280;40818;50.562;7.454;2023-03-22T11:48:42;97101.72;;;13.55;66.45
54918;BME280;40818;50.562;7.454;2023-03-22T11:58:56;97094.31;;;13.19;64.97
54918;BME280;40818;50.562;7.454;2023-03-22T12:09:15;97081.78;;;13.03;68.41
54918;BME280;40818;50.562;7.454;2023-03-22T12:19:31;97081.53;;;13.16;64.57
54918;BME280;40818;50.562;7.454;2023-03-22T12:29:44;97074.78;;;13.04;66.83
54918;BME280;40818;50.562;7.454;2023-03-22T12:39:53;97068.78;;;13.13;65.58
54918;BME280;40818;50.562;7.454;2023-03-22T12:50:04;97073.31;;;12.80;71.52
54918;BME280;40818;50.562;7.454;2023-03-22T13:00:13;97082.31;;;12.45;71.96
54918;BME280;40818;50.562;7.454;2023-03-22T13:10:56;97068.44;;;12.35;72.47
54918;BME280;40818;50.562;7.454;2023-03-22T13:21:09;97076.06;;;11.94;72.44
54918;BME280;40818;50.562;7.454;2023-03-22T13:31:33;97071.03;;;11.81;75.35
54918;BME280;40818;50.562;7.454;2023-03-22T13:41:38;97062.84;;;11.53;78.64
54918;BME280;40818;50.562;7.454;2023-03-22T13:51:44;97082.56;;;11.56;79.24
54918;BME280;40818;50.562;7.454;2023-03-22T14:01:50;97069.97;;;11.51;79.71
54918;BME280;40818;50.562;7.454;2023-03-22T14:12:01;97049.88;;;11.42;81.99
54918;BME280;40818;50.562;7.454;2023-03-22T14:22:12;97025.72;;;11.30;83.18
54918;BME280;40818;50.562;7.454;2023-03-22T14:32:21;97002.94;;;11.22;84.74
54918;BME280;40818;50.562;7.454;2023-03-22T14:42:29;96996.19;;;11.20;82.92
54918;BME280;40818;50.562;7.454;2023-03-22T14:52:37;97015.16;;;11.43;83.50
54918;BME280;40818;50.562;7.454;2023-03-22T15:02:41;97025.31;;;11.46;80.39
54918;BME280;40818;50.562;7.454;2023-03-22T15:12:50;97031.47;;;11.34;78.39
54918;BME280;40818;50.562;7.454;2023-03-22T15:22:56;97022.53;;;11.26;77.68
54918;BME280;40818;50.562;7.454;2023-03-22T15:33:06;97017.47;;;11.25;78.10
54918;BME280;40818;50.562;7.454;2023-03-22T15:43:19;97008.38;;;11.19;77.93
54918;BME280;40818;50.562;7.454;2023-03-22T15:53:29;97009.09;;;11.10;79.32
54918;BME280;40818;50.562;7.454;2023-03-22T16:03:39;97017.47;;;11.14;80.75
54918;BME280;40818;50.562;7.454;2023-03-22T16:13:46;97005.91;;;11.18;81.55
54918;BME280;40818;50.562;7.454;2023-03-22T16:23:50;97006.47;;;11.21;81.77
54918;BME280;40818;50.562;7.454;2023-03-22T16:33:56;96999.66;;;11.20;81.96
54918;BME280;40818;50.562;7.454;2023-03-22T16:44:00;96998.03;;;11.08;81.86
54918;BME280;40818;50.562;7.454;2023-03-22T16:54:07;96989.03;;;11.01;81.51
54918;BME280;40818;50.562;7.454;2023-03-22T17:04:10;96970.66;;;10.92;83.41
54918;BME280;40818;50.562;7.454;2023-03-22T17:14:16;96970.22;;;10.76;83.40
54918;BME280;40818;50.562;7.454;2023-03-22T17:24:19;96991.81;;;10.76;83.32
54918;BME280;40818;50.562;7.454;2023-03-22T17:34:26;96977.53;;;10.71;83.69
54918;BME280;40818;50.562;7.454;2023-03-22T17:44:30;96981.56;;;10.64;83.96
54918;BME280;40818;50.562;7.454;2023-03-22T17:54:37;96974.47;;;10.54;83.49
54918;BME280;40818;50.562;7.454;2023-03-22T18:04:41;96973.91;;;10.51;84.07
54918;BME280;40818;50.562;7.454;2023-03-22T18:14:47;96973.06;;;10.50;84.60
54918;BME280;40818;50.562;7.454;2023-03-22T18:24:51;96976.59;;;10.49;84.79
54918;BME280;40818;50.562;7.454;2023-03-22T18:34:58;96975.78;;;10.49;84.72
54918;BME280;40818;50.562;7.454;2023-03-22T18:45:01;96981.31;;;10.44;85.96
54918;BME280;40818;50.562;7.454;2023-03-22T18:55:08;96969.97;;;10.45;85.90
54918;BME280;40818;50.562;7.454;2023-03-22T19:05:12;96972.13;;;10.40;87.52
54918;BME280;40818;50.562;7.454;2023-03-22T19:15:18;96977.44;;;10.38;87.88
54918;BME280;40818;50.562;7.454;2023-03-22T19:25:22;96969.78;;;10.37;89.00
54918;BME280;40818;50.562;7.454;2023-03-22T19:35:28;96960.63;;;10.31;90.74
54918;BME280;40818;50.562;7.454;2023-03-22T19:45:32;96956.69;;;10.38;90.05
54918;BME280;40818;50.562;7.454;2023-03-22T19:55:38;96949.94;;;10.36;91.01
54918;BME280;40818;50.562;7.454;2023-03-22T20:05:41;96946.84;;;10.31;91.94
54918;BME280;40818;50.562;7.454;2023-03-22T20:15:48;96921.38;;;10.24;93.33
54918;BME280;40818;50.562;7.454;2023-03-22T20:25:52;96906.88;;;10.22;93.41
54918;BME280;40818;50.562;7.454;2023-03-22T20:36:00;96892.03;;;10.13;94.34
54918;BME280;40818;50.562;7.454;2023-03-22T20:46:04;96890.16;;;10.15;94.18
54918;BME280;40818;50.562;7.454;2023-03-22T20:56:10;96884.84;;;10.16;94.87
54918;BME280;40818;50.562;7.454;2023-03-22T21:06:14;96878.00;;;10.15;95.17
54918;BME280;40818;50.562;7.454;2023-03-22T21:16:20;96866.69;;;10.16;95.23
54918;BME280;40818;50.562;7.454;2023-03-22T21:26:24;96876.81;;;10.19;94.84
54918;BME280;40818;50.562;7.454;2023-03-22T21:36:31;96868.47;;;10.27;94.90
54918;BME280;40818;50.562;7.454;2023-03-22T21:46:35;96851.69;;;10.31;94.33
54918;BME280;40818;50.562;7.454;2023-03-22T21:56:48;96842.53;;;10.38;93.66
54918;BME280;40818;50.562;7.454;2023-03-22T22:06:51;96827.78;;;10.39;92.86
54918;BME280;40818;50.562;7.454;2023-03-22T22:16:57;96822.00;;;10.47;91.46
54918;BME280;40818;50.562;7.454;2023-03-22T22:27:01;96812.53;;;10.46;91.80
54918;BME280;40818;50.562;7.454;2023-03-22T22:37:08;96809.81;;;10.47;91.69
54918;BME280;40818;50.562;7.454;2023-03-22T22:47:11;96809.56;;;10.50;91.20
54918;BME280;40818;50.562;7.454;2023-03-22T22:57:17;96806.50;;;10.45;93.17
54918;BME280;40818;50.562;7.454;2023-03-22T23:07:20;96800.16;;;10.38;93.71
54918;BME280;40818;50.562;7.454;2023-03-22T23:17:27;96813.97;;;10.38;92.60
54918;BME280;40818;50.562;7.454;2023-03-22T23:27:31;96801.81;;;10.39;92.13
54918;BME280;40818;50.562;7.454;2023-03-22T23:37:37;96821.75;;;10.38;92.78
54918;BME280;40818;50.562;7.454;2023-03-22T23:47:42;96805.34;;;10.27;95.81
54918;BME280;40818;50.562;7.454;2023-03-22T23:57:51;96801.94;;;10.26;94.76
